createdAt,value
2018-05-08T00:02:18.173Z,13.93
2018-05-08T00:04:47.997Z,13.70
2018-05-08T00:07:18.560Z,13.43
2018-05-08T00:09:49.007Z,13.83
2018-05-08T00:12:19.423Z,14.23
2018-05-08T00:14:49.959Z,14.57
2018-05-08T00:17:20.569Z,14.73
2018-05-08T00:19:50.953Z,16.23
2018-05-08T00:22:21.432Z,16.47
2018-05-08T00:24:51.505Z,17.57
2018-05-08T00:27:21.810Z,16.33
2018-05-08T00:29:52.745Z,18.03
2018-05-08T00:32:23.063Z,18.83
2018-05-08T00:34:53.327Z,18.00
2018-05-08T00:37:23.496Z,16.60
2018-05-08T00:39:53.971Z,17.40
2018-05-08T00:42:24.400Z,16.47
2018-05-08T00:44:54.904Z,14.97
2018-05-08T00:47:25.303Z,15.87
2018-05-08T00:49:55.603Z,16.93
2018-05-08T00:52:25.713Z,18.30
2018-05-08T00:55:07.926Z,19.03
2018-05-08T00:57:38.514Z,18.53
2018-05-08T01:00:08.861Z,19.50
2018-05-08T01:02:39.342Z,18.97
2018-05-08T01:05:09.931Z,18.77
2018-05-08T01:07:39.767Z,19.10
2018-05-08T01:10:10.033Z,18.93
2018-05-08T01:12:40.299Z,19.87
2018-05-08T01:15:10.935Z,19.30
2018-05-08T01:17:40.737Z,19.03
2018-05-08T01:20:11.065Z,15.40
2018-05-08T01:22:41.655Z,16.07
2018-05-08T01:25:12.217Z,17.80
2018-05-08T01:27:42.548Z,16.60
2018-05-08T01:30:13.277Z,14.13
2018-05-08T01:32:43.140Z,14.83
2018-05-08T01:35:13.638Z,15.40
2018-05-08T01:37:43.464Z,15.03
2018-05-08T01:40:13.765Z,14.53
2018-05-08T01:42:44.244Z,14.97
2018-05-08T01:45:14.684Z,14.90
2018-05-08T01:47:45.158Z,15.37
2018-05-08T01:50:15.523Z,14.90
2018-05-08T01:52:45.890Z,15.77
2018-05-08T01:55:16.034Z,16.77
2018-05-08T01:57:46.501Z,17.37
2018-05-08T02:00:16.887Z,16.50
2018-05-08T02:02:47.273Z,17.53
2018-05-08T02:05:17.348Z,19.00
2018-05-08T02:07:48.007Z,20.63
2018-05-08T02:10:18.476Z,21.40
2018-05-08T02:12:48.873Z,20.30
2018-05-08T02:15:19.019Z,19.47
2018-05-08T02:17:49.329Z,19.40
2018-05-08T02:20:19.940Z,19.60
2018-05-08T02:22:50.186Z,19.60
2018-05-08T02:25:19.948Z,20.17
2018-05-08T02:27:50.609Z,19.73
2018-05-08T02:30:20.934Z,21.90
2018-05-08T02:32:51.253Z,20.37
2018-05-08T02:35:21.675Z,20.87
2018-05-08T02:37:51.960Z,19.70
2018-05-08T02:40:22.424Z,19.57
2018-05-08T02:42:52.603Z,20.50
2018-05-08T02:45:22.820Z,19.23
2018-05-08T02:47:53.599Z,19.20
2018-05-08T02:50:23.916Z,19.73
2018-05-08T02:52:54.353Z,18.93
2018-05-08T02:55:37.185Z,17.80
2018-05-08T02:58:19.760Z,18.27
2018-05-08T03:00:50.268Z,18.20
2018-05-08T03:03:20.763Z,18.57
2018-05-08T03:05:51.349Z,19.23
2018-05-08T03:08:21.710Z,17.27
2018-05-08T03:10:52.213Z,17.87
2018-05-08T03:13:22.889Z,16.27
2018-05-08T03:15:53.221Z,16.83
2018-05-08T03:18:23.912Z,17.30
2018-05-08T03:20:54.262Z,16.97
2018-05-08T03:23:24.514Z,17.37
2018-05-08T03:25:54.805Z,16.83
2018-05-08T03:28:24.968Z,16.77
2018-05-08T03:30:55.287Z,16.20
2018-05-08T03:33:26.121Z,16.67
2018-05-08T03:35:56.386Z,17.00
2018-05-08T03:38:26.797Z,17.07
2018-05-08T03:40:57.245Z,15.63
2018-05-08T03:43:27.776Z,15.87
2018-05-08T03:45:57.893Z,15.87
2018-05-08T03:48:28.203Z,16.57
2018-05-08T03:50:58.615Z,16.13
2018-05-08T03:53:28.337Z,15.27
2018-05-08T03:55:58.049Z,15.97
2018-05-08T03:58:27.891Z,16.90
2018-05-08T04:01:09.262Z,16.33
2018-05-08T04:03:50.782Z,16.50
2018-05-08T04:06:56.029Z,17.13
2018-05-08T04:09:25.745Z,15.97
2018-05-08T04:11:55.518Z,15.43
2018-05-08T04:14:25.264Z,15.37
2018-05-08T04:16:55.000Z,15.70
2018-05-08T04:19:24.755Z,16.27
2018-05-08T04:21:54.471Z,16.50
2018-05-08T04:24:24.210Z,16.57
2018-05-08T04:26:53.965Z,15.63
2018-05-08T04:29:23.679Z,16.03
2018-05-08T04:31:53.409Z,15.77
2018-05-08T04:34:23.124Z,15.10
2018-05-08T04:36:52.929Z,12.83
2018-05-08T04:39:22.653Z,14.00
2018-05-08T04:41:52.385Z,13.50
2018-05-08T04:44:22.135Z,12.40
2018-05-08T04:46:51.854Z,12.60
2018-05-08T04:49:21.606Z,14.00
2018-05-08T04:51:51.312Z,12.73
2018-05-08T04:54:21.093Z,13.33
2018-05-08T04:56:50.841Z,13.10
2018-05-08T04:59:20.561Z,12.90
2018-05-08T05:01:50.312Z,15.57
2018-05-08T05:04:20.077Z,13.13
2018-05-08T05:06:49.785Z,12.93
2018-05-08T05:09:19.501Z,13.33
2018-05-08T05:11:49.242Z,14.37
2018-05-08T05:14:18.975Z,13.37
2018-05-08T05:16:48.813Z,11.80
2018-05-08T05:19:18.462Z,13.50
2018-05-08T05:21:48.266Z,13.47
2018-05-08T05:24:17.963Z,13.73
2018-05-08T05:26:47.705Z,13.10
2018-05-08T05:29:17.458Z,13.17
2018-05-08T05:31:47.228Z,12.60
2018-05-08T05:34:17.023Z,12.27
2018-05-08T05:36:46.733Z,12.80
2018-05-08T05:39:16.465Z,12.90
2018-05-08T05:41:46.217Z,11.07
2018-05-08T05:44:16.140Z,13.03
2018-05-08T05:46:45.914Z,13.37
2018-05-08T05:49:15.657Z,12.40
2018-05-08T05:51:45.436Z,11.80
2018-05-08T05:54:16.715Z,11.97
2018-05-08T05:56:48.288Z,11.50
2018-05-08T05:59:18.038Z,12.13
2018-05-08T06:01:47.749Z,12.13
2018-05-08T06:04:17.515Z,12.57
2018-05-08T06:06:47.259Z,11.73
2018-05-08T06:09:16.961Z,13.00
2018-05-08T06:11:46.652Z,13.13
2018-05-08T06:14:16.421Z,12.33
2018-05-08T06:16:46.143Z,12.33
2018-05-08T06:19:15.973Z,12.63
2018-05-08T06:21:45.722Z,10.93
2018-05-08T06:24:15.473Z,11.47
2018-05-08T06:26:45.230Z,12.63
2018-05-08T06:29:14.956Z,11.17
2018-05-08T06:31:44.756Z,11.90
2018-05-08T06:34:14.527Z,12.30
2018-05-08T06:36:44.268Z,12.00
2018-05-08T06:39:14.127Z,12.20
2018-05-08T06:41:43.855Z,12.07
2018-05-08T06:44:13.605Z,11.40
2018-05-08T06:46:43.480Z,11.60
2018-05-08T06:49:13.217Z,11.07
2018-05-08T06:51:43.001Z,12.00
2018-05-08T06:54:12.714Z,10.93
2018-05-08T06:56:42.402Z,11.93
2018-05-08T06:59:12.125Z,10.10
2018-05-08T07:01:41.895Z,10.13
2018-05-08T07:04:11.653Z,11.60
2018-05-08T07:06:41.390Z,11.73
2018-05-08T07:09:11.286Z,11.73
2018-05-08T07:11:40.993Z,9.30
2018-05-08T07:14:10.756Z,9.77
2018-05-08T07:16:40.507Z,10.27
2018-05-08T07:19:10.255Z,9.53
2018-05-08T07:21:40.034Z,10.57
2018-05-08T07:24:09.720Z,9.70
2018-05-08T07:26:39.415Z,9.90
2018-05-08T07:29:09.169Z,9.97
2018-05-08T07:31:38.870Z,10.00
2018-05-08T07:34:08.573Z,10.83
2018-05-08T07:36:38.261Z,11.67
2018-05-08T07:39:07.983Z,11.30
2018-05-08T07:41:37.727Z,12.37
2018-05-08T07:44:07.424Z,11.60
2018-05-08T07:46:37.154Z,11.30
2018-05-08T07:49:06.961Z,11.07
2018-05-08T07:51:36.690Z,11.63
2018-05-08T07:54:06.486Z,12.63
2018-05-08T07:56:36.238Z,11.50
2018-05-08T07:59:06.024Z,11.20
2018-05-08T08:01:35.752Z,11.47
2018-05-08T08:04:05.527Z,11.67
2018-05-08T08:06:35.331Z,11.00
2018-05-08T08:09:05.082Z,9.87
2018-05-08T08:11:34.828Z,12.77
2018-05-08T08:14:04.554Z,12.30
2018-05-08T08:16:34.277Z,12.77
2018-05-08T08:19:04.090Z,11.90
2018-05-08T08:21:33.875Z,12.07
2018-05-08T08:24:03.623Z,13.80
2018-05-08T08:26:33.340Z,11.53
2018-05-08T08:29:03.057Z,11.63
2018-05-08T08:31:32.844Z,10.40
2018-05-08T08:34:02.541Z,11.03
2018-05-08T08:36:32.239Z,11.20
2018-05-08T08:39:02.010Z,11.67
2018-05-08T08:41:31.768Z,10.63
2018-05-08T08:44:01.540Z,10.37
2018-05-08T08:46:31.351Z,8.73
2018-05-08T08:49:01.082Z,8.73
2018-05-08T08:51:30.814Z,10.60
2018-05-08T08:54:00.581Z,10.73
2018-05-08T08:56:30.346Z,11.20
2018-05-08T08:59:00.080Z,10.10
2018-05-08T09:01:29.806Z,7.10
2018-05-08T09:03:59.559Z,8.70
2018-05-08T09:06:29.262Z,10.33
2018-05-08T09:08:59.016Z,10.50
2018-05-08T09:11:28.768Z,10.37
2018-05-08T09:13:58.567Z,7.90
2018-05-08T09:16:28.281Z,8.83
2018-05-08T09:18:57.972Z,8.73
2018-05-08T09:21:27.747Z,9.43
2018-05-08T09:23:57.484Z,8.50
2018-05-08T09:26:27.198Z,8.60
2018-05-08T09:28:56.933Z,9.10
2018-05-08T09:31:26.675Z,7.77
2018-05-08T09:33:56.430Z,8.10
2018-05-08T09:36:26.165Z,8.03
2018-05-08T09:38:55.892Z,8.47
2018-05-08T09:41:26.545Z,8.20
2018-05-08T09:43:56.949Z,7.67
2018-05-08T09:46:27.355Z,8.03
2018-05-08T09:51:51.034Z,8.20
2018-05-08T09:54:23.345Z,7.93
2018-05-08T09:56:53.798Z,7.93
2018-05-08T09:59:24.665Z,6.70
2018-05-08T10:01:56.093Z,6.80
2018-05-08T10:04:28.230Z,7.23
2018-05-08T10:06:59.440Z,6.13
2018-05-08T10:09:30.080Z,6.63
2018-05-08T10:12:00.481Z,7.13
2018-05-08T10:14:31.217Z,7.00
2018-05-08T10:17:02.626Z,6.37
2018-05-08T10:19:32.497Z,7.00
2018-05-08T10:22:02.323Z,6.23
2018-05-08T10:24:32.048Z,6.63
2018-05-08T10:27:01.802Z,7.40
2018-05-08T10:29:31.602Z,7.17
2018-05-08T10:32:01.321Z,7.73
2018-05-08T10:34:31.081Z,6.77
2018-05-08T10:37:00.809Z,6.00
2018-05-08T10:39:30.491Z,6.43
2018-05-08T10:42:00.257Z,5.90
2018-05-08T10:44:29.985Z,6.13
2018-05-08T10:46:59.706Z,5.80
2018-05-08T10:49:29.458Z,6.20
2018-05-08T10:51:59.200Z,6.30
2018-05-08T10:54:28.959Z,6.20
2018-05-08T10:56:58.737Z,6.37
2018-05-08T10:59:28.479Z,6.07
2018-05-08T11:03:50.106Z,6.27
2018-05-08T11:06:20.588Z,6.10
2018-05-08T11:08:51.068Z,5.93
2018-05-08T11:11:21.551Z,6.60
2018-05-08T11:13:51.267Z,6.90
2018-05-08T11:16:21.790Z,6.40
2018-05-08T11:18:51.576Z,6.30
2018-05-08T11:21:22.124Z,7.00
2018-05-08T11:23:52.380Z,7.23
2018-05-08T11:26:22.639Z,7.30
2018-05-08T11:28:53.033Z,6.63
2018-05-08T11:31:22.948Z,6.37
2018-05-08T11:33:53.369Z,6.97
2018-05-08T11:36:23.472Z,6.90
2018-05-08T11:38:53.472Z,6.50
2018-05-08T11:41:23.657Z,6.80
2018-05-08T11:43:54.117Z,5.40
2018-05-08T11:46:24.305Z,4.90
2018-05-08T11:48:54.748Z,5.00
2018-05-08T11:51:24.879Z,4.90
2018-05-08T11:53:55.271Z,5.80
2018-05-08T11:56:25.633Z,5.47
2018-05-08T11:58:56.391Z,5.60
2018-05-08T12:01:26.501Z,6.03
2018-05-08T12:03:56.997Z,6.07
2018-05-08T12:06:27.402Z,6.03
2018-05-08T12:08:57.647Z,6.23
2018-05-08T12:11:27.983Z,5.97
2018-05-08T12:13:58.322Z,6.10
2018-05-08T12:16:28.431Z,6.47
2018-05-08T12:18:58.670Z,6.57
2018-05-08T12:21:28.382Z,6.23
2018-05-08T12:23:58.583Z,6.23
2018-05-08T12:26:28.879Z,6.20
2018-05-08T12:28:59.399Z,6.57
2018-05-08T12:31:29.628Z,6.73
2018-05-08T12:33:59.540Z,6.40
2018-05-08T12:36:29.802Z,6.67
2018-05-08T12:38:59.924Z,6.00
2018-05-08T12:41:30.691Z,6.33
2018-05-08T12:44:01.383Z,5.80
2018-05-08T12:46:31.862Z,6.70
2018-05-08T12:49:02.603Z,5.83
2018-05-08T12:51:32.975Z,6.40
2018-05-08T12:54:03.543Z,6.13
2018-05-08T12:56:34.120Z,6.47
2018-05-08T12:59:04.520Z,6.70
2018-05-08T13:01:34.604Z,6.73
2018-05-08T13:04:04.785Z,6.80
2018-05-08T13:06:35.538Z,7.60
2018-05-08T13:09:05.397Z,6.53
2018-05-08T13:11:35.572Z,6.93
2018-05-08T13:14:06.129Z,6.30
2018-05-08T13:16:36.608Z,7.00
2018-05-08T13:19:07.547Z,6.03
2018-05-08T13:21:37.820Z,5.87
2018-05-08T13:27:17.042Z,6.10
2018-05-08T13:29:47.669Z,6.47
2018-05-08T13:32:17.889Z,6.47
2018-05-08T13:34:47.850Z,6.00
2018-05-08T13:37:18.890Z,6.13
2018-05-08T13:39:49.928Z,6.00
2018-05-08T13:42:20.558Z,5.27
2018-05-08T13:44:51.609Z,5.27
2018-05-08T13:47:22.103Z,5.80
2018-05-08T13:49:52.917Z,5.70
2018-05-08T13:52:22.779Z,5.43
2018-05-08T13:54:52.622Z,5.57
2018-05-08T13:57:22.463Z,5.90
2018-05-08T13:59:52.324Z,5.73
2018-05-08T14:02:22.128Z,6.80
2018-05-08T14:04:51.952Z,5.83
2018-05-08T14:07:21.866Z,5.80
2018-05-08T14:09:51.674Z,5.90
2018-05-08T14:12:21.484Z,4.50
2018-05-08T14:14:51.301Z,4.87
2018-05-08T14:17:21.074Z,4.80
2018-05-08T14:19:51.032Z,4.80
2018-05-08T14:22:20.837Z,4.77
2018-05-08T14:24:50.719Z,4.57
2018-05-08T14:27:21.083Z,4.00
2018-05-08T14:29:50.892Z,5.10
2018-05-08T14:32:20.748Z,5.90
2018-05-08T14:34:50.527Z,4.50
2018-05-08T14:37:20.289Z,4.87
2018-05-08T14:39:50.043Z,4.40
2018-05-08T14:42:19.854Z,4.07
2018-05-08T14:44:49.667Z,4.43
2018-05-08T14:47:19.479Z,4.00
2018-05-08T14:49:49.303Z,4.23
2018-05-08T14:52:19.212Z,4.13
2018-05-08T14:54:49.029Z,4.00
2018-05-08T14:57:18.923Z,3.97
2018-05-08T14:59:48.708Z,4.00
2018-05-08T15:02:18.422Z,3.80
2018-05-08T15:04:48.174Z,3.53
2018-05-08T15:07:18.094Z,3.70
2018-05-08T15:09:47.910Z,3.90
2018-05-08T15:12:17.820Z,3.50
2018-05-08T15:14:47.582Z,3.40
2018-05-08T15:17:17.443Z,3.90
2018-05-08T15:19:47.260Z,3.40
2018-05-08T15:22:17.073Z,3.70
2018-05-08T15:24:46.886Z,4.00
2018-05-08T15:27:16.825Z,3.83
2018-05-08T15:29:46.680Z,3.90
2018-05-08T15:32:16.347Z,4.13
2018-05-08T15:34:46.059Z,4.00
2018-05-08T15:37:15.781Z,4.03
2018-05-08T15:39:45.468Z,4.17
2018-05-08T15:42:15.176Z,3.93
2018-05-08T15:44:44.890Z,4.03
2018-05-08T15:47:14.767Z,4.27
2018-05-08T15:49:44.427Z,3.93
2018-05-08T15:52:14.223Z,4.07
2018-05-08T15:54:43.910Z,4.27
2018-05-08T15:57:13.594Z,4.53
2018-05-08T15:59:43.355Z,4.07
2018-05-08T16:02:13.151Z,4.50
2018-05-08T16:04:42.861Z,5.00
2018-05-08T16:07:12.545Z,4.83
2018-05-08T16:09:42.262Z,4.67
2018-05-08T16:12:12.026Z,4.77
2018-05-08T16:14:41.725Z,5.00
2018-05-08T16:17:11.477Z,4.90
2018-05-08T16:19:41.364Z,4.80
2018-05-08T16:22:10.933Z,5.20
2018-05-08T16:24:40.624Z,4.77
2018-05-08T16:27:10.325Z,4.70
2018-05-08T16:29:40.015Z,5.03
2018-05-08T16:32:09.782Z,4.90
2018-05-08T16:34:39.482Z,4.87
2018-05-08T16:37:09.179Z,5.33
2018-05-08T16:39:38.924Z,5.40
2018-05-08T16:42:08.610Z,5.43
2018-05-08T16:44:38.307Z,5.70
2018-05-08T16:47:08.030Z,5.97
2018-05-08T16:49:37.775Z,5.63
2018-05-08T16:52:07.474Z,5.47
2018-05-08T16:54:37.171Z,5.87
2018-05-08T16:57:06.862Z,7.43
2018-05-08T16:59:36.610Z,6.37
2018-05-08T17:02:06.317Z,6.43
2018-05-08T17:04:35.999Z,6.83
2018-05-08T17:07:05.776Z,6.70
2018-05-08T17:09:35.466Z,6.60
2018-05-08T17:12:05.169Z,6.67
2018-05-08T17:14:34.898Z,6.37
2018-05-08T17:17:04.596Z,6.37
2018-05-08T17:19:34.297Z,7.07
2018-05-08T17:22:04.095Z,6.00
2018-05-08T17:24:33.797Z,6.53
2018-05-08T17:27:03.529Z,6.07
2018-05-08T17:29:33.236Z,6.63
2018-05-08T17:32:02.962Z,6.57
2018-05-08T17:34:32.691Z,6.60
2018-05-08T17:37:02.377Z,7.57
2018-05-08T17:39:32.087Z,6.50
2018-05-08T17:42:01.835Z,7.50
2018-05-08T17:44:31.531Z,7.10
2018-05-08T17:47:01.252Z,7.57
2018-05-08T17:49:30.968Z,7.70
2018-05-08T17:52:00.720Z,7.87
2018-05-08T17:54:30.468Z,8.17
2018-05-08T17:57:00.192Z,7.70
2018-05-08T17:59:29.917Z,7.87
2018-05-08T18:01:59.674Z,7.33
2018-05-08T18:04:29.370Z,7.60
2018-05-08T18:06:59.090Z,7.53
2018-05-08T18:09:28.824Z,9.83
2018-05-08T18:11:58.533Z,9.27
2018-05-08T18:14:28.223Z,9.80
2018-05-08T18:16:57.938Z,9.80
2018-05-08T18:19:27.646Z,9.53
2018-05-08T18:21:57.372Z,9.03
2018-05-08T18:24:27.060Z,9.27
2018-05-08T18:26:56.745Z,9.20
2018-05-08T18:29:26.462Z,9.30
2018-05-08T18:31:56.149Z,9.60
2018-05-08T18:34:25.941Z,10.30
2018-05-08T18:36:55.665Z,8.97
2018-05-08T18:39:25.388Z,9.63
2018-05-08T18:41:55.083Z,9.80
2018-05-08T18:44:24.778Z,9.60
2018-05-08T18:46:54.471Z,9.90
2018-05-08T18:49:24.285Z,10.37
2018-05-08T18:51:53.980Z,10.43
2018-05-08T18:54:23.720Z,10.00
2018-05-08T18:56:53.410Z,9.93
2018-05-08T18:59:23.130Z,9.77
2018-05-08T19:01:52.950Z,10.03
2018-05-08T19:04:22.658Z,10.47
2018-05-08T19:06:52.385Z,10.07
2018-05-08T19:09:22.156Z,10.50
2018-05-08T19:11:51.869Z,11.57
2018-05-08T19:14:21.644Z,11.10
2018-05-08T19:16:51.352Z,10.83
2018-05-08T19:19:26.725Z,12.03
2018-05-08T19:21:56.421Z,11.47
2018-05-08T19:24:31.939Z,9.63
2018-05-08T19:27:01.636Z,10.60
2018-05-08T19:29:36.919Z,10.90
2018-05-08T19:32:06.665Z,9.80
2018-05-08T19:34:41.902Z,10.00
2018-05-08T19:37:17.165Z,11.80
2018-05-08T19:39:46.910Z,11.37
2018-05-08T19:42:16.631Z,11.00
2018-05-08T19:44:46.385Z,11.50
2018-05-08T19:47:16.109Z,10.73
2018-05-08T19:49:45.822Z,10.93
2018-05-08T19:52:15.557Z,9.83
2018-05-08T19:54:45.258Z,11.00
2018-05-08T19:57:15.059Z,10.10
2018-05-08T19:59:44.791Z,10.57
2018-05-08T20:02:14.505Z,12.10
2018-05-08T20:04:44.228Z,11.87
2018-05-08T20:07:13.911Z,10.20
2018-05-08T20:09:43.634Z,10.63
2018-05-08T20:12:13.341Z,11.73
2018-05-08T20:14:43.276Z,12.60
2018-05-08T20:17:13.039Z,12.03
2018-05-08T20:19:42.853Z,12.83
2018-05-08T20:22:12.544Z,11.20
2018-05-08T20:24:42.280Z,12.07
2018-05-08T20:27:12.000Z,12.77
2018-05-08T20:29:41.729Z,11.73
2018-05-08T20:32:11.471Z,12.00
2018-05-08T20:34:41.201Z,12.37
2018-05-08T20:37:10.982Z,12.13
2018-05-08T20:39:40.686Z,11.97
2018-05-08T20:42:10.377Z,11.30
2018-05-08T20:44:40.100Z,12.03
2018-05-08T20:47:09.810Z,11.40
2018-05-08T20:49:39.567Z,11.57
2018-05-08T20:52:09.282Z,11.03
2018-05-08T20:54:39.066Z,11.10
2018-05-08T20:57:08.816Z,10.90
2018-05-08T20:59:38.532Z,10.70
2018-05-08T21:02:08.232Z,10.53
2018-05-08T21:04:38.060Z,12.07
2018-05-08T21:07:07.753Z,11.13
2018-05-08T21:09:37.451Z,9.80
2018-05-08T21:12:07.184Z,10.23
2018-05-08T21:14:36.880Z,10.30
2018-05-08T21:17:06.600Z,10.27
2018-05-08T21:19:36.311Z,11.20
2018-05-08T21:22:06.016Z,10.80
2018-05-08T21:24:35.798Z,11.57
2018-05-08T21:27:05.533Z,11.97
2018-05-08T21:29:40.869Z,12.67
2018-05-08T21:32:10.577Z,12.30
2018-05-08T21:34:40.270Z,12.10
2018-05-08T21:37:10.001Z,11.33
2018-05-08T21:39:39.785Z,12.07
2018-05-08T21:42:09.454Z,11.33
2018-05-08T21:44:39.181Z,10.93
2018-05-08T21:47:08.892Z,11.23
2018-05-08T21:49:38.641Z,12.00
2018-05-08T21:52:08.361Z,12.00
2018-05-08T21:54:38.111Z,11.90
2018-05-08T21:57:07.839Z,12.87
2018-05-08T21:59:37.517Z,12.53
2018-05-08T22:02:07.215Z,12.83
2018-05-08T22:04:36.961Z,13.70
2018-05-08T22:07:06.661Z,13.83
2018-05-08T22:09:36.460Z,13.40
2018-05-08T22:12:06.157Z,12.70
2018-05-08T22:14:35.866Z,12.40
2018-05-08T22:17:05.650Z,12.67
2018-05-08T22:19:35.376Z,12.07
2018-05-08T22:22:05.085Z,13.07
2018-05-08T22:24:34.800Z,12.73
2018-05-08T22:27:04.521Z,13.13
2018-05-08T22:29:34.238Z,14.17
2018-05-08T22:32:03.917Z,14.33
2018-05-08T22:34:33.696Z,12.27
2018-05-08T22:37:03.445Z,12.93
2018-05-08T22:39:33.143Z,12.87
2018-05-08T22:42:02.845Z,14.60
2018-05-08T22:44:32.567Z,13.53
2018-05-08T22:47:02.281Z,12.67
2018-05-08T22:49:31.992Z,13.67
2018-05-08T22:52:01.727Z,15.20
2018-05-08T22:54:32.282Z,15.73
2018-05-08T22:57:02.108Z,14.53
2018-05-08T22:59:31.893Z,16.10
2018-05-08T23:02:02.172Z,15.93
2018-05-08T23:04:32.283Z,16.50
2018-05-08T23:07:02.659Z,16.47
2018-05-08T23:09:32.866Z,18.33
2018-05-08T23:12:02.978Z,17.23
2018-05-08T23:14:33.180Z,21.27
2018-05-08T23:17:03.343Z,20.47
2018-05-08T23:19:33.792Z,17.97
2018-05-08T23:22:04.169Z,17.40
2018-05-08T23:24:34.748Z,16.93
2018-05-08T23:27:04.982Z,16.67
2018-05-08T23:29:34.942Z,17.37
2018-05-08T23:32:05.646Z,16.20
2018-05-08T23:34:36.002Z,16.07
2018-05-08T23:37:06.217Z,14.70
2018-05-08T23:39:36.915Z,13.37
2018-05-08T23:42:07.115Z,13.13
2018-05-08T23:44:37.582Z,12.57
2018-05-08T23:47:07.444Z,14.20
2018-05-08T23:49:37.815Z,14.53
2018-05-08T23:52:08.219Z,14.13
2018-05-08T23:54:38.363Z,13.73
2018-05-08T23:57:08.880Z,13.83
2018-05-08T23:59:39.505Z,13.67
